sensor_id;sensor_type;location;lat;lon;timestamp;temperature;humidity
11826;DHT22;5970;48.094;11.496;2023-04-03T00:02:25;3.70;99.90
11826;DHT22;5970;48.094;11.496;2023-04-03T00:04:52;3.80;99.90
11826;DHT22;5970;48.094;11.496;2023-04-03T00:07:18;3.80;99.90
11826;DHT22;5970;48.094;11.496;2023-04-03T00:09:45;3.70;99.90
11826;DHT22;5970;48.094;11.496;2023-04-03T00:12:12;3.70;99.90
11826;DHT22;5970;48.094;11.496;2023-04-03T00:14:38;3.70;99.90
11826;DHT22;5970;48.094;11.496;2023-04-03T00:17:05;3.70;99.90
11826;DHT22;5970;48.094;11.496;2023-04-03T00:19:32;3.70;99.90
11826;DHT22;5970;48.094;11.496;2023-04-03T00:21:58;3.70;99.90
11826;DHT22;5970;48.094;11.496;2023-04-03T00:24:25;3.70;99.90
11826;DHT22;5970;48.094;11.496;2023-04-03T00:26:51;3.60;99.90
11826;DHT22;5970;48.094;11.496;2023-04-03T00:29:18;3.50;99.90
11826;DHT22;5970;48.094;11.496;2023-04-03T00:31:44;3.60;99.90
11826;DHT22;5970;48.094;11.496;2023-04-03T00:34:11;3.60;99.90
11826;DHT22;5970;48.094;11.496;2023-04-03T00:36:38;3.70;99.90
11826;DHT22;5970;48.094;11.496;2023-04-03T00:39:05;3.60;99.90
11826;DHT22;5970;48.094;11.496;2023-04-03T00:41:32;3.50;99.90
11826;DHT22;5970;48.094;11.496;2023-04-03T00:43:58;3.50;99.90
11826;DHT22;5970;48.094;11.496;2023-04-03T00:46:25;3.70;99.90
11826;DHT22;5970;48.094;11.496;2023-04-03T00:48:52;3.70;99.90
11826;DHT22;5970;48.094;11.496;2023-04-03T00:51:24;3.70;99.90
11826;DHT22;5970;48.094;11.496;2023-04-03T00:53:56;3.70;99.90
11826;DHT22;5970;48.094;11.496;2023-04-03T00:56:25;3.80;99.90
11826;DHT22;5970;48.094;11.496;2023-04-03T01:01:23;3.90;99.90
11826;DHT22;5970;48.094;11.496;2023-04-03T01:03:50;3.80;99.90
11826;DHT22;5970;48.094;11.496;2023-04-03T01:06:19;3.90;99.90
11826;DHT22;5970;48.094;11.496;2023-04-03T01:08:48;3.80;99.90
11826;DHT22;5970;48.094;11.496;2023-04-03T01:11:15;3.70;99.90
11826;DHT22;5970;48.094;11.496;2023-04-03T01:13:41;3.70;99.90
11826;DHT22;5970;48.094;11.496;2023-04-03T01:16:08;3.70;99.90
11826;DHT22;5970;48.094;11.496;2023-04-03T01:18:36;3.80;99.90
11826;DHT22;5970;48.094;11.496;2023-04-03T01:26:15;3.70;99.90
11826;DHT22;5970;48.094;11.496;2023-04-03T01:28:42;3.80;99.90
11826;DHT22;5970;48.094;11.496;2023-04-03T01:33:48;3.80;99.90
11826;DHT22;5970;48.094;11.496;2023-04-03T01:36:16;3.80;99.90
11826;DHT22;5970;48.094;11.496;2023-04-03T01:38:43;3.90;99.90
11826;DHT22;5970;48.094;11.496;2023-04-03T01:41:10;3.80;99.90
11826;DHT22;5970;48.094;11.496;2023-04-03T01:43:37;3.90;99.90
11826;DHT22;5970;48.094;11.496;2023-04-03T01:46:03;3.80;99.90
11826;DHT22;5970;48.094;11.496;2023-04-03T01:48:30;3.80;99.90
11826;DHT22;5970;48.094;11.496;2023-04-03T01:50:57;3.90;99.90
11826;DHT22;5970;48.094;11.496;2023-04-03T01:53:23;3.90;99.90
11826;DHT22;5970;48.094;11.496;2023-04-03T01:55:50;3.90;99.90
11826;DHT22;5970;48.094;11.496;2023-04-03T01:58:17;3.90;99.90
11826;DHT22;5970;48.094;11.496;2023-04-03T02:00:43;3.90;99.90
11826;DHT22;5970;48.094;11.496;2023-04-03T02:03:10;3.90;99.90
11826;DHT22;5970;48.094;11.496;2023-04-03T02:05:37;4.00;99.90
11826;DHT22;5970;48.094;11.496;2023-04-03T02:08:04;4.00;99.90
11826;DHT22;5970;48.094;11.496;2023-04-03T02:10:31;3.90;99.90
11826;DHT22;5970;48.094;11.496;2023-04-03T02:12:57;3.80;99.90
11826;DHT22;5970;48.094;11.496;2023-04-03T02:15:24;3.80;99.90
11826;DHT22;5970;48.094;11.496;2023-04-03T02:17:52;3.80;99.90
11826;DHT22;5970;48.094;11.496;2023-04-03T02:20:19;3.90;99.90
11826;DHT22;5970;48.094;11.496;2023-04-03T02:22:45;3.80;99.90
11826;DHT22;5970;48.094;11.496;2023-04-03T02:25:12;3.90;99.90
11826;DHT22;5970;48.094;11.496;2023-04-03T02:27:39;3.80;99.90
11826;DHT22;5970;48.094;11.496;2023-04-03T02:30:06;3.80;99.90
11826;DHT22;5970;48.094;11.496;2023-04-03T02:32:33;3.60;99.90
11826;DHT22;5970;48.094;11.496;2023-04-03T02:34:59;3.70;99.90
11826;DHT22;5970;48.094;11.496;2023-04-03T02:37:26;3.80;99.90
11826;DHT22;5970;48.094;11.496;2023-04-03T02:39:52;3.80;99.90
11826;DHT22;5970;48.094;11.496;2023-04-03T02:42:19;3.80;99.90
11826;DHT22;5970;48.094;11.496;2023-04-03T02:44:46;3.80;99.90
11826;DHT22;5970;48.094;11.496;2023-04-03T02:47:12;3.90;99.90
11826;DHT22;5970;48.094;11.496;2023-04-03T02:49:39;3.80;99.90
11826;DHT22;5970;48.094;11.496;2023-04-03T02:52:06;3.80;99.90
11826;DHT22;5970;48.094;11.496;2023-04-03T02:54:32;3.70;99.90
11826;DHT22;5970;48.094;11.496;2023-04-03T02:56:59;3.70;99.90
11826;DHT22;5970;48.094;11.496;2023-04-03T02:59:26;3.50;99.90
11826;DHT22;5970;48.094;11.496;2023-04-03T03:01:52;3.70;99.90
11826;DHT22;5970;48.094;11.496;2023-04-03T03:04:19;3.50;99.90
11826;DHT22;5970;48.094;11.496;2023-04-03T03:06:46;3.50;99.90
11826;DHT22;5970;48.094;11.496;2023-04-03T03:09:13;3.50;99.90
11826;DHT22;5970;48.094;11.496;2023-04-03T03:11:40;3.60;99.90
11826;DHT22;5970;48.094;11.496;2023-04-03T03:14:06;3.50;99.90
11826;DHT22;5970;48.094;11.496;2023-04-03T03:16:33;3.50;99.90
11826;DHT22;5970;48.094;11.496;2023-04-03T03:19:00;3.40;99.90
11826;DHT22;5970;48.094;11.496;2023-04-03T03:21:26;3.50;99.90
11826;DHT22;5970;48.094;11.496;2023-04-03T03:23:53;3.50;99.90
11826;DHT22;5970;48.094;11.496;2023-04-03T03:26:19;3.50;99.90
11826;DHT22;5970;48.094;11.496;2023-04-03T03:28:46;3.50;99.90
11826;DHT22;5970;48.094;11.496;2023-04-03T03:31:13;3.60;99.90
11826;DHT22;5970;48.094;11.496;2023-04-03T03:33:39;3.60;99.90
11826;DHT22;5970;48.094;11.496;2023-04-03T03:36:06;3.60;99.90
11826;DHT22;5970;48.094;11.496;2023-04-03T03:38:33;3.60;99.90
11826;DHT22;5970;48.094;11.496;2023-04-03T03:41:00;3.60;99.90
11826;DHT22;5970;48.094;11.496;2023-04-03T03:43:27;3.70;99.90
11826;DHT22;5970;48.094;11.496;2023-04-03T03:45:54;3.60;99.90
11826;DHT22;5970;48.094;11.496;2023-04-03T03:48:21;3.70;99.90
11826;DHT22;5970;48.094;11.496;2023-04-03T03:50:48;3.70;99.90
11826;DHT22;5970;48.094;11.496;2023-04-03T03:53:15;3.80;99.90
11826;DHT22;5970;48.094;11.496;2023-04-03T03:55:42;3.80;99.90
11826;DHT22;5970;48.094;11.496;2023-04-03T03:58:08;3.80;99.90
11826;DHT22;5970;48.094;11.496;2023-04-03T04:00:35;3.80;99.90
11826;DHT22;5970;48.094;11.496;2023-04-03T04:03:02;3.80;99.90
11826;DHT22;5970;48.094;11.496;2023-04-03T04:05:28;3.90;99.90
11826;DHT22;5970;48.094;11.496;2023-04-03T04:07:55;3.80;99.90
11826;DHT22;5970;48.094;11.496;2023-04-03T04:10:22;3.80;99.90
11826;DHT22;5970;48.094;11.496;2023-04-03T04:12:48;3.70;99.90
11826;DHT22;5970;48.094;11.496;2023-04-03T04:15:15;3.70;99.90
11826;DHT22;5970;48.094;11.496;2023-04-03T04:17:42;3.70;99.90
11826;DHT22;5970;48.094;11.496;2023-04-03T04:20:09;3.70;99.90
11826;DHT22;5970;48.094;11.496;2023-04-03T04:22:36;3.80;99.90
11826;DHT22;5970;48.094;11.496;2023-04-03T04:25:02;3.80;99.90
11826;DHT22;5970;48.094;11.496;2023-04-03T04:27:29;3.70;99.90
11826;DHT22;5970;48.094;11.496;2023-04-03T04:29:56;3.70;99.90
11826;DHT22;5970;48.094;11.496;2023-04-03T04:32:24;3.70;99.90
11826;DHT22;5970;48.094;11.496;2023-04-03T04:34:51;3.70;99.90
11826;DHT22;5970;48.094;11.496;2023-04-03T04:37:18;3.60;99.90
11826;DHT22;5970;48.094;11.496;2023-04-03T04:39:44;3.70;99.90
11826;DHT22;5970;48.094;11.496;2023-04-03T04:42:11;3.70;99.90
11826;DHT22;5970;48.094;11.496;2023-04-03T04:44:42;3.70;99.90
11826;DHT22;5970;48.094;11.496;2023-04-03T04:47:08;3.60;99.90
11826;DHT22;5970;48.094;11.496;2023-04-03T04:49:35;3.60;99.90
11826;DHT22;5970;48.094;11.496;2023-04-03T04:52:02;3.60;99.90
11826;DHT22;5970;48.094;11.496;2023-04-03T04:54:28;3.70;99.90
11826;DHT22;5970;48.094;11.496;2023-04-03T04:56:55;3.70;99.90
11826;DHT22;5970;48.094;11.496;2023-04-03T04:59:22;3.80;99.90
11826;DHT22;5970;48.094;11.496;2023-04-03T05:01:48;3.70;99.90
11826;DHT22;5970;48.094;11.496;2023-04-03T05:04:15;3.70;99.90
11826;DHT22;5970;48.094;11.496;2023-04-03T05:06:42;3.70;99.90
11826;DHT22;5970;48.094;11.496;2023-04-03T05:09:09;3.60;99.90
11826;DHT22;5970;48.094;11.496;2023-04-03T05:11:36;3.70;99.90
11826;DHT22;5970;48.094;11.496;2023-04-03T05:14:03;3.70;99.90
11826;DHT22;5970;48.094;11.496;2023-04-03T05:16:33;3.70;99.90
11826;DHT22;5970;48.094;11.496;2023-04-03T05:18:59;3.70;99.90
11826;DHT22;5970;48.094;11.496;2023-04-03T05:21:26;3.60;99.90
11826;DHT22;5970;48.094;11.496;2023-04-03T05:23:55;3.60;99.90
11826;DHT22;5970;48.094;11.496;2023-04-03T05:26:22;3.70;99.90
11826;DHT22;5970;48.094;11.496;2023-04-03T05:28:49;3.80;99.90
11826;DHT22;5970;48.094;11.496;2023-04-03T05:31:15;3.80;99.90
11826;DHT22;5970;48.094;11.496;2023-04-03T05:33:42;3.80;99.90
11826;DHT22;5970;48.094;11.496;2023-04-03T05:36:08;3.80;99.90
11826;DHT22;5970;48.094;11.496;2023-04-03T05:38:35;3.80;99.90
11826;DHT22;5970;48.094;11.496;2023-04-03T05:41:02;3.80;99.90
11826;DHT22;5970;48.094;11.496;2023-04-03T05:43:29;3.90;99.90
11826;DHT22;5970;48.094;11.496;2023-04-03T05:45:55;3.80;99.90
11826;DHT22;5970;48.094;11.496;2023-04-03T05:48:22;3.80;99.90
11826;DHT22;5970;48.094;11.496;2023-04-03T05:50:49;3.80;99.90
11826;DHT22;5970;48.094;11.496;2023-04-03T05:53:17;3.80;99.90
11826;DHT22;5970;48.094;11.496;2023-04-03T05:55:45;3.90;99.90
11826;DHT22;5970;48.094;11.496;2023-04-03T05:58:12;3.90;99.90
11826;DHT22;5970;48.094;11.496;2023-04-03T06:00:38;3.90;99.90
11826;DHT22;5970;48.094;11.496;2023-04-03T06:03:05;3.90;99.90
11826;DHT22;5970;48.094;11.496;2023-04-03T06:05:32;3.90;99.90
11826;DHT22;5970;48.094;11.496;2023-04-03T06:07:59;3.90;99.90
11826;DHT22;5970;48.094;11.496;2023-04-03T06:10:26;3.90;99.90
11826;DHT22;5970;48.094;11.496;2023-04-03T06:12:53;4.00;99.90
11826;DHT22;5970;48.094;11.496;2023-04-03T06:15:20;4.00;99.90
11826;DHT22;5970;48.094;11.496;2023-04-03T06:17:47;4.00;99.90
11826;DHT22;5970;48.094;11.496;2023-04-03T06:20:14;4.10;99.90
11826;DHT22;5970;48.094;11.496;2023-04-03T06:22:40;4.20;99.90
11826;DHT22;5970;48.094;11.496;2023-04-03T06:25:08;4.10;99.90
11826;DHT22;5970;48.094;11.496;2023-04-03T06:27:36;4.10;99.90
11826;DHT22;5970;48.094;11.496;2023-04-03T06:30:03;4.20;99.90
11826;DHT22;5970;48.094;11.496;2023-04-03T06:32:29;4.10;99.90
11826;DHT22;5970;48.094;11.496;2023-04-03T06:34:56;4.20;99.90
11826;DHT22;5970;48.094;11.496;2023-04-03T06:37:24;4.30;99.90
11826;DHT22;5970;48.094;11.496;2023-04-03T06:39:55;4.50;99.90
11826;DHT22;5970;48.094;11.496;2023-04-03T06:42:22;4.70;99.90
11826;DHT22;5970;48.094;11.496;2023-04-03T06:44:48;4.70;99.70
11826;DHT22;5970;48.094;11.496;2023-04-03T06:47:15;4.70;99.60
11826;DHT22;5970;48.094;11.496;2023-04-03T06:49:42;4.70;99.40
11826;DHT22;5970;48.094;11.496;2023-04-03T06:52:09;4.70;99.20
11826;DHT22;5970;48.094;11.496;2023-04-03T06:54:36;4.70;99.40
11826;DHT22;5970;48.094;11.496;2023-04-03T06:57:03;4.70;99.10
11826;DHT22;5970;48.094;11.496;2023-04-03T06:59:29;4.70;99.00
11826;DHT22;5970;48.094;11.496;2023-04-03T07:01:56;4.80;99.20
11826;DHT22;5970;48.094;11.496;2023-04-03T07:04:25;4.80;98.90
11826;DHT22;5970;48.094;11.496;2023-04-03T07:06:52;5.00;99.10
11826;DHT22;5970;48.094;11.496;2023-04-03T07:09:19;5.00;98.80
11826;DHT22;5970;48.094;11.496;2023-04-03T07:11:45;4.90;98.50
11826;DHT22;5970;48.094;11.496;2023-04-03T07:14:12;5.00;98.60
11826;DHT22;5970;48.094;11.496;2023-04-03T07:16:39;5.00;98.10
11826;DHT22;5970;48.094;11.496;2023-04-03T07:19:08;4.90;97.90
11826;DHT22;5970;48.094;11.496;2023-04-03T07:21:35;4.90;98.10
11826;DHT22;5970;48.094;11.496;2023-04-03T07:24:02;5.20;98.30
11826;DHT22;5970;48.094;11.496;2023-04-03T07:26:28;5.30;97.90
11826;DHT22;5970;48.094;11.496;2023-04-03T07:28:55;5.30;97.90
11826;DHT22;5970;48.094;11.496;2023-04-03T07:31:22;5.50;98.00
11826;DHT22;5970;48.094;11.496;2023-04-03T07:33:49;5.60;97.80
11826;DHT22;5970;48.094;11.496;2023-04-03T07:36:17;5.70;97.70
11826;DHT22;5970;48.094;11.496;2023-04-03T07:38:44;5.70;97.50
11826;DHT22;5970;48.094;11.496;2023-04-03T07:41:13;5.60;97.00
11826;DHT22;5970;48.094;11.496;2023-04-03T07:43:40;5.70;97.20
11826;DHT22;5970;48.094;11.496;2023-04-03T07:46:07;5.70;97.10
11826;DHT22;5970;48.094;11.496;2023-04-03T07:48:34;5.60;96.60
11826;DHT22;5970;48.094;11.496;2023-04-03T07:51:02;5.60;96.80
11826;DHT22;5970;48.094;11.496;2023-04-03T07:53:28;5.70;97.20
11826;DHT22;5970;48.094;11.496;2023-04-03T07:55:56;5.60;96.90
11826;DHT22;5970;48.094;11.496;2023-04-03T07:58:23;5.70;96.80
11826;DHT22;5970;48.094;11.496;2023-04-03T08:00:50;5.70;96.70
11826;DHT22;5970;48.094;11.496;2023-04-03T08:03:16;5.80;96.90
11826;DHT22;5970;48.094;11.496;2023-04-03T08:05:45;6.00;96.70
11826;DHT22;5970;48.094;11.496;2023-04-03T08:08:13;6.10;96.80
11826;DHT22;5970;48.094;11.496;2023-04-03T08:10:40;5.90;96.30
11826;DHT22;5970;48.094;11.496;2023-04-03T08:13:07;5.70;96.50
11826;DHT22;5970;48.094;11.496;2023-04-03T08:15:34;5.60;96.80
11826;DHT22;5970;48.094;11.496;2023-04-03T08:18:01;5.60;96.70
11826;DHT22;5970;48.094;11.496;2023-04-03T08:20:27;5.60;96.60
11826;DHT22;5970;48.094;11.496;2023-04-03T08:22:54;5.60;96.60
11826;DHT22;5970;48.094;11.496;2023-04-03T08:25:21;5.60;96.90
11826;DHT22;5970;48.094;11.496;2023-04-03T08:27:47;5.80;96.90
11826;DHT22;5970;48.094;11.496;2023-04-03T08:30:14;5.50;96.50
11826;DHT22;5970;48.094;11.496;2023-04-03T08:32:41;5.50;96.70
11826;DHT22;5970;48.094;11.496;2023-04-03T08:35:09;5.30;96.90
11826;DHT22;5970;48.094;11.496;2023-04-03T08:37:36;5.30;96.90
11826;DHT22;5970;48.094;11.496;2023-04-03T08:40:05;5.30;97.10
11826;DHT22;5970;48.094;11.496;2023-04-03T08:45:20;5.50;97.10
11826;DHT22;5970;48.094;11.496;2023-04-03T08:47:56;5.50;96.60
11826;DHT22;5970;48.094;11.496;2023-04-03T08:50:47;5.60;96.70
11826;DHT22;5970;48.094;11.496;2023-04-03T08:53:17;5.70;97.00
11826;DHT22;5970;48.094;11.496;2023-04-03T08:55:49;6.00;96.80
11826;DHT22;5970;48.094;11.496;2023-04-03T08:58:18;6.10;96.40
11826;DHT22;5970;48.094;11.496;2023-04-03T09:00:52;5.90;95.90
11826;DHT22;5970;48.094;11.496;2023-04-03T09:03:21;6.00;96.20
11826;DHT22;5970;48.094;11.496;2023-04-03T09:05:55;6.20;96.20
11826;DHT22;5970;48.094;11.496;2023-04-03T09:10:52;6.00;95.20
11826;DHT22;5970;48.094;11.496;2023-04-03T09:16:10;6.20;95.80
11826;DHT22;5970;48.094;11.496;2023-04-03T09:18:40;6.30;95.20
11826;DHT22;5970;48.094;11.496;2023-04-03T09:21:51;6.50;95.20
11826;DHT22;5970;48.094;11.496;2023-04-03T09:23:58;6.60;94.90
11826;DHT22;5970;48.094;11.496;2023-04-03T09:26:30;6.80;94.90
11826;DHT22;5970;48.094;11.496;2023-04-03T09:29:01;6.90;94.60
11826;DHT22;5970;48.094;11.496;2023-04-03T09:32:02;6.70;94.30
11826;DHT22;5970;48.094;11.496;2023-04-03T09:34:32;6.80;94.50
11826;DHT22;5970;48.094;11.496;2023-04-03T09:36:59;7.00;94.40
11826;DHT22;5970;48.094;11.496;2023-04-03T09:39:32;7.90;94.40
11826;DHT22;5970;48.094;11.496;2023-04-03T09:42:11;7.40;93.60
11826;DHT22;5970;48.094;11.496;2023-04-03T09:44:39;7.40;93.40
11826;DHT22;5970;48.094;11.496;2023-04-03T09:49:45;7.40;93.60
11826;DHT22;5970;48.094;11.496;2023-04-03T09:52:33;7.30;93.00
11826;DHT22;5970;48.094;11.496;2023-04-03T09:55:06;7.20;93.00
11826;DHT22;5970;48.094;11.496;2023-04-03T09:57:33;7.50;94.10
11826;DHT22;5970;48.094;11.496;2023-04-03T10:00:01;7.60;93.20
11826;DHT22;5970;48.094;11.496;2023-04-03T10:02:35;7.70;92.80
11826;DHT22;5970;48.094;11.496;2023-04-03T10:05:02;7.70;91.90
11826;DHT22;5970;48.094;11.496;2023-04-03T10:07:33;7.70;92.40
11826;DHT22;5970;48.094;11.496;2023-04-03T10:10:03;7.70;92.70
11826;DHT22;5970;48.094;11.496;2023-04-03T10:12:42;7.60;92.90
11826;DHT22;5970;48.094;11.496;2023-04-03T10:15:15;7.20;92.50
11826;DHT22;5970;48.094;11.496;2023-04-03T10:22:55;6.50;92.70
11826;DHT22;5970;48.094;11.496;2023-04-03T10:25:30;6.50;93.10
11826;DHT22;5970;48.094;11.496;2023-04-03T10:30:49;6.50;92.90
11826;DHT22;5970;48.094;11.496;2023-04-03T10:36:12;6.60;93.00
11826;DHT22;5970;48.094;11.496;2023-04-03T10:38:57;6.50;93.00
11826;DHT22;5970;48.094;11.496;2023-04-03T10:41:35;6.40;93.10
11826;DHT22;5970;48.094;11.496;2023-04-03T10:44:11;6.10;93.40
11826;DHT22;5970;48.094;11.496;2023-04-03T10:46:44;5.80;94.20
11826;DHT22;5970;48.094;11.496;2023-04-03T10:52:06;5.60;95.40
11826;DHT22;5970;48.094;11.496;2023-04-03T10:55:01;5.60;95.40
11826;DHT22;5970;48.094;11.496;2023-04-03T10:57:23;5.60;95.60
11826;DHT22;5970;48.094;11.496;2023-04-03T10:59:51;5.70;95.90
11826;DHT22;5970;48.094;11.496;2023-04-03T11:02:34;5.70;96.10
11826;DHT22;5970;48.094;11.496;2023-04-03T11:05:04;5.40;95.90
11826;DHT22;5970;48.094;11.496;2023-04-03T11:07:39;5.30;95.90
11826;DHT22;5970;48.094;11.496;2023-04-03T11:10:15;5.30;96.10
11826;DHT22;5970;48.094;11.496;2023-04-03T11:12:49;5.60;96.90
11826;DHT22;5970;48.094;11.496;2023-04-03T11:15:18;5.60;96.60
11826;DHT22;5970;48.094;11.496;2023-04-03T11:17:58;5.70;96.50
11826;DHT22;5970;48.094;11.496;2023-04-03T11:20:26;5.60;96.00
11826;DHT22;5970;48.094;11.496;2023-04-03T11:23:05;5.40;96.40
11826;DHT22;5970;48.094;11.496;2023-04-03T11:25:33;5.50;96.70
11826;DHT22;5970;48.094;11.496;2023-04-03T11:28:02;5.70;97.00
11826;DHT22;5970;48.094;11.496;2023-04-03T11:33:03;6.20;96.80
11826;DHT22;5970;48.094;11.496;2023-04-03T11:35:32;6.40;96.10
11826;DHT22;5970;48.094;11.496;2023-04-03T11:37:59;6.50;95.70
11826;DHT22;5970;48.094;11.496;2023-04-03T11:40:28;6.50;95.00
11826;DHT22;5970;48.094;11.496;2023-04-03T11:45:29;6.70;95.40
11826;DHT22;5970;48.094;11.496;2023-04-03T11:50:47;7.20;94.70
11826;DHT22;5970;48.094;11.496;2023-04-03T11:58:17;8.00;92.90
11826;DHT22;5970;48.094;11.496;2023-04-03T12:13:36;7.70;90.00
11826;DHT22;5970;48.094;11.496;2023-04-03T12:16:03;7.60;89.80
11826;DHT22;5970;48.094;11.496;2023-04-03T12:18:31;7.60;90.00
11826;DHT22;5970;48.094;11.496;2023-04-03T12:20:58;7.20;89.60
11826;DHT22;5970;48.094;11.496;2023-04-03T12:23:30;7.30;90.20
11826;DHT22;5970;48.094;11.496;2023-04-03T12:26:03;7.00;90.00
11826;DHT22;5970;48.094;11.496;2023-04-03T12:28:35;7.00;90.40
11826;DHT22;5970;48.094;11.496;2023-04-03T12:31:03;6.70;90.50
11826;DHT22;5970;48.094;11.496;2023-04-03T12:35:59;6.80;90.70
11826;DHT22;5970;48.094;11.496;2023-04-03T12:38:33;6.70;89.10
11826;DHT22;5970;48.094;11.496;2023-04-03T12:41:21;6.90;89.00
11826;DHT22;5970;48.094;11.496;2023-04-03T12:46:38;7.20;88.00
11826;DHT22;5970;48.094;11.496;2023-04-03T12:49:14;7.10;86.90
11826;DHT22;5970;48.094;11.496;2023-04-03T12:51:45;7.10;88.10
11826;DHT22;5970;48.094;11.496;2023-04-03T12:56:45;7.20;86.30
11826;DHT22;5970;48.094;11.496;2023-04-03T12:59:13;7.10;86.00
11826;DHT22;5970;48.094;11.496;2023-04-03T13:01:41;7.20;86.00
11826;DHT22;5970;48.094;11.496;2023-04-03T13:04:09;7.30;85.40
11826;DHT22;5970;48.094;11.496;2023-04-03T13:06:41;7.30;85.80
11826;DHT22;5970;48.094;11.496;2023-04-03T13:09:19;7.40;84.20
11826;DHT22;5970;48.094;11.496;2023-04-03T13:11:50;7.80;83.50
11826;DHT22;5970;48.094;11.496;2023-04-03T13:14:19;7.90;83.50
11826;DHT22;5970;48.094;11.496;2023-04-03T13:16:56;8.20;83.80
11826;DHT22;5970;48.094;11.496;2023-04-03T13:19:24;8.20;82.40
11826;DHT22;5970;48.094;11.496;2023-04-03T13:21:59;8.40;82.80
11826;DHT22;5970;48.094;11.496;2023-04-03T13:24:27;8.50;82.20
11826;DHT22;5970;48.094;11.496;2023-04-03T13:26:55;8.40;80.20
11826;DHT22;5970;48.094;11.496;2023-04-03T13:29:25;8.50;80.30
11826;DHT22;5970;48.094;11.496;2023-04-03T13:31:57;8.90;81.00
11826;DHT22;5970;48.094;11.496;2023-04-03T13:34:26;8.90;79.50
11826;DHT22;5970;48.094;11.496;2023-04-03T13:36:55;9.30;77.20
11826;DHT22;5970;48.094;11.496;2023-04-03T13:39:24;10.00;77.10
11826;DHT22;5970;48.094;11.496;2023-04-03T13:41:52;11.40;73.70
11826;DHT22;5970;48.094;11.496;2023-04-03T13:46:52;11.10;69.70
11826;DHT22;5970;48.094;11.496;2023-04-03T13:49:33;12.50;69.70
11826;DHT22;5970;48.094;11.496;2023-04-03T13:52:01;14.50;65.60
11826;DHT22;5970;48.094;11.496;2023-04-03T13:54:37;16.40;59.80
11826;DHT22;5970;48.094;11.496;2023-04-03T13:57:12;15.90;52.70
11826;DHT22;5970;48.094;11.496;2023-04-03T13:59:39;14.00;54.40
11826;DHT22;5970;48.094;11.496;2023-04-03T14:02:11;12.90;55.50
11826;DHT22;5970;48.094;11.496;2023-04-03T14:07:12;10.30;59.70
11826;DHT22;5970;48.094;11.496;2023-04-03T14:09:39;9.70;63.90
11826;DHT22;5970;48.094;11.496;2023-04-03T14:12:13;9.20;65.80
11826;DHT22;5970;48.094;11.496;2023-04-03T14:14:57;8.50;67.00
11826;DHT22;5970;48.094;11.496;2023-04-03T14:17:25;8.30;68.90
11826;DHT22;5970;48.094;11.496;2023-04-03T14:19:53;8.00;68.40
11826;DHT22;5970;48.094;11.496;2023-04-03T14:22:25;7.70;67.40
11826;DHT22;5970;48.094;11.496;2023-04-03T14:24:52;7.50;68.10
11826;DHT22;5970;48.094;11.496;2023-04-03T14:29:46;7.50;68.20
11826;DHT22;5970;48.094;11.496;2023-04-03T14:32:13;7.50;69.50
11826;DHT22;5970;48.094;11.496;2023-04-03T14:34:41;7.60;68.50
11826;DHT22;5970;48.094;11.496;2023-04-03T14:37:13;7.90;69.30
11826;DHT22;5970;48.094;11.496;2023-04-03T14:39:40;8.10;67.70
11826;DHT22;5970;48.094;11.496;2023-04-03T14:42:15;8.50;68.90
11826;DHT22;5970;48.094;11.496;2023-04-03T14:44:42;8.70;66.60
11826;DHT22;5970;48.094;11.496;2023-04-03T14:47:12;8.90;66.50
11826;DHT22;5970;48.094;11.496;2023-04-03T14:49:55;9.10;65.90
11826;DHT22;5970;48.094;11.496;2023-04-03T14:52:23;9.30;65.80
11826;DHT22;5970;48.094;11.496;2023-04-03T14:54:51;9.30;64.80
11826;DHT22;5970;48.094;11.496;2023-04-03T14:57:18;9.30;64.60
11826;DHT22;5970;48.094;11.496;2023-04-03T14:59:45;9.20;63.90
11826;DHT22;5970;48.094;11.496;2023-04-03T15:02:34;9.30;62.20
11826;DHT22;5970;48.094;11.496;2023-04-03T15:05:00;9.60;62.80
11826;DHT22;5970;48.094;11.496;2023-04-03T15:07:29;9.60;61.30
11826;DHT22;5970;48.094;11.496;2023-04-03T15:09:56;9.40;62.90
11826;DHT22;5970;48.094;11.496;2023-04-03T15:12:23;9.20;62.60
11826;DHT22;5970;48.094;11.496;2023-04-03T15:14:50;8.70;62.50
11826;DHT22;5970;48.094;11.496;2023-04-03T15:17:27;8.50;63.50
11826;DHT22;5970;48.094;11.496;2023-04-03T15:19:54;8.10;62.70
11826;DHT22;5970;48.094;11.496;2023-04-03T15:22:20;8.00;64.10
11826;DHT22;5970;48.094;11.496;2023-04-03T15:24:47;7.70;64.00
11826;DHT22;5970;48.094;11.496;2023-04-03T15:27:14;7.50;64.00
11826;DHT22;5970;48.094;11.496;2023-04-03T15:29:42;7.20;63.40
11826;DHT22;5970;48.094;11.496;2023-04-03T15:32:09;7.00;64.10
11826;DHT22;5970;48.094;11.496;2023-04-03T15:34:37;7.00;64.00
11826;DHT22;5970;48.094;11.496;2023-04-03T15:37:03;7.10;64.60
11826;DHT22;5970;48.094;11.496;2023-04-03T15:39:31;7.10;64.80
11826;DHT22;5970;48.094;11.496;2023-04-03T15:41:58;7.00;63.40
11826;DHT22;5970;48.094;11.496;2023-04-03T15:44:32;7.00;63.70
11826;DHT22;5970;48.094;11.496;2023-04-03T15:47:00;7.00;64.60
11826;DHT22;5970;48.094;11.496;2023-04-03T15:49:27;7.20;63.40
11826;DHT22;5970;48.094;11.496;2023-04-03T15:51:53;7.20;63.20
11826;DHT22;5970;48.094;11.496;2023-04-03T15:54:20;7.10;62.10
11826;DHT22;5970;48.094;11.496;2023-04-03T15:56:47;7.10;62.00
11826;DHT22;5970;48.094;11.496;2023-04-03T15:59:13;7.20;62.80
11826;DHT22;5970;48.094;11.496;2023-04-03T16:01:40;7.10;61.10
11826;DHT22;5970;48.094;11.496;2023-04-03T16:04:07;7.10;61.50
11826;DHT22;5970;48.094;11.496;2023-04-03T16:06:34;7.10;62.00
11826;DHT22;5970;48.094;11.496;2023-04-03T16:09:01;7.20;61.40
11826;DHT22;5970;48.094;11.496;2023-04-03T16:11:28;7.10;60.60
11826;DHT22;5970;48.094;11.496;2023-04-03T16:13:55;7.20;60.20
11826;DHT22;5970;48.094;11.496;2023-04-03T16:16:22;7.40;60.90
11826;DHT22;5970;48.094;11.496;2023-04-03T16:18:49;7.50;59.80
11826;DHT22;5970;48.094;11.496;2023-04-03T16:21:16;7.80;59.60
11826;DHT22;5970;48.094;11.496;2023-04-03T16:23:44;8.30;59.00
11826;DHT22;5970;48.094;11.496;2023-04-03T16:26:10;8.40;58.10
11826;DHT22;5970;48.094;11.496;2023-04-03T16:28:37;8.30;58.50
11826;DHT22;5970;48.094;11.496;2023-04-03T16:31:04;8.20;58.30
11826;DHT22;5970;48.094;11.496;2023-04-03T16:33:31;8.10;58.80
11826;DHT22;5970;48.094;11.496;2023-04-03T16:35:58;8.00;59.30
11826;DHT22;5970;48.094;11.496;2023-04-03T16:38:24;8.10;59.80
11826;DHT22;5970;48.094;11.496;2023-04-03T16:40:51;8.10;59.30
11826;DHT22;5970;48.094;11.496;2023-04-03T16:43:19;7.70;59.00
11826;DHT22;5970;48.094;11.496;2023-04-03T16:45:46;7.30;58.60
11826;DHT22;5970;48.094;11.496;2023-04-03T16:48:12;7.00;59.20
11826;DHT22;5970;48.094;11.496;2023-04-03T16:50:40;6.60;59.40
11826;DHT22;5970;48.094;11.496;2023-04-03T16:53:07;6.30;60.20
11826;DHT22;5970;48.094;11.496;2023-04-03T16:55:35;6.10;60.50
11826;DHT22;5970;48.094;11.496;2023-04-03T16:58:02;6.10;61.10
11826;DHT22;5970;48.094;11.496;2023-04-03T17:00:30;6.10;61.40
11826;DHT22;5970;48.094;11.496;2023-04-03T17:02:56;6.00;61.00
11826;DHT22;5970;48.094;11.496;2023-04-03T17:05:23;6.00;61.20
11826;DHT22;5970;48.094;11.496;2023-04-03T17:07:50;5.80;60.20
11826;DHT22;5970;48.094;11.496;2023-04-03T17:10:17;5.70;60.10